Time;durP1;ratioP1;P1;durP2;ratioP2;P2;SDS_P1;SDS_P2;PMS_P1;PMS_P2;Temp;Humidity;BMP_temperature;BMP_pressure;BME280_temperature;BME280_humidity;BME280_pressure;Samples;Min_cycle;Max_cycle;Signal;HPM_P1;HPM_P2
2022/03/16 00:02:04;;;;;;;3.15;2.13;;;;;;;17.19;50.52;97175.56;10463793;28;20036;-23
2022/03/16 00:07:04;;;;;;;4.50;2.75;;;;;;;17.18;50.60;97178.94;10461333;28;20044;-23
2022/03/16 00:12:05;;;;;;;2.33;2.00;;;;;;;17.18;50.33;97178.94;10472012;28;20090;-24
2022/03/16 00:17:06;;;;;;;4.15;2.53;;;;;;;17.14;50.40;97177.22;10462935;28;20040;-23
2022/03/16 00:22:07;;;;;;;4.43;2.40;;;;;;;17.12;50.43;97179.72;10467109;28;20040;-24
2022/03/16 00:27:07;;;;;;;2.70;2.40;;;;;;;17.13;50.56;97171.28;10465692;28;20024;-24
2022/03/16 00:32:08;;;;;;;3.70;3.00;;;;;;;17.16;52.04;97170.47;10443993;28;20036;-23
2022/03/16 00:37:09;;;;;;;3.03;2.60;;;;;;;17.24;53.51;97173.97;10461445;28;20029;-23
2022/03/16 00:42:09;;;;;;;4.75;2.80;;;;;;;17.24;53.45;97179.03;10465394;28;20025;-23
2022/03/16 00:47:10;;;;;;;2.50;2.15;;;;;;;17.21;50.98;97179.81;10460293;28;20033;-24
2022/03/16 00:52:10;;;;;;;5.32;3.28;;;;;;;17.16;50.75;97183.13;10457493;28;20123;-24
2022/03/16 00:57:11;;;;;;;4.13;2.40;;;;;;;17.13;50.35;97183.06;10468430;28;20040;-24
2022/03/16 01:02:11;;;;;;;3.43;2.17;;;;;;;17.05;50.29;97166.94;10458014;28;20040;-23
2022/03/16 01:07:11;;;;;;;5.07;2.20;;;;;;;17.12;50.10;97178.84;10459936;28;20908;-24
2022/03/16 01:12:12;;;;;;;2.83;1.57;;;;;;;17.12;50.35;97167.06;10444286;28;20374;-24
2022/03/16 01:17:13;;;;;;;3.45;2.15;;;;;;;17.11;50.50;97167.91;10440209;28;20145;-23
2022/03/16 01:22:13;;;;;;;3.00;1.93;;;;;;;17.12;50.29;97168.72;10467708;28;20412;-23
2022/03/16 01:27:13;;;;;;;3.37;2.20;;;;;;;17.10;50.26;97160.28;10462874;28;20286;-23
2022/03/16 01:32:14;;;;;;;2.20;1.53;;;;;;;17.09;50.39;97153.53;10440264;28;20310;-23
2022/03/16 01:37:14;;;;;;;6.57;2.50;;;;;;;17.10;50.26;97145.09;10437402;28;20787;-24
2022/03/16 01:42:15;;;;;;;3.33;1.98;;;;;;;17.15;53.55;97138.44;10473310;28;20060;-23
2022/03/16 01:47:17;;;;;;;2.80;2.13;;;;;;;17.23;53.58;97146.97;10473340;28;20032;-23
2022/03/16 01:52:20;;;;;;;3.03;2.05;;;;;;;17.20;51.54;97154.50;10466247;28;20440;-23
2022/03/16 01:57:22;;;;;;;2.28;1.80;;;;;;;17.16;50.67;97155.31;10448849;28;20044;-23
2022/03/16 02:02:22;;;;;;;2.30;2.00;;;;;;;17.12;50.71;97154.41;10444883;28;20036;-24
2022/03/16 02:07:22;;;;;;;2.35;1.63;;;;;;;17.12;50.60;97161.13;10444743;28;20037;-24
2022/03/16 02:12:23;;;;;;;2.47;1.93;;;;;;;17.11;50.18;97167.03;10475700;28;20050;-24
2022/03/16 02:17:23;;;;;;;2.77;1.87;;;;;;;17.11;50.25;97172.09;10469935;28;20305;-23
2022/03/16 02:22:24;;;;;;;2.45;1.58;;;;;;;17.09;50.46;97171.22;10464906;28;20048;-24
2022/03/16 02:27:25;;;;;;;3.45;1.75;;;;;;;17.10;50.29;97167.88;10468502;28;20029;-24
2022/03/16 02:32:25;;;;;;;3.57;1.57;;;;;;;17.09;50.19;97181.34;10475658;28;20029;-25
2022/03/16 02:37:25;;;;;;;3.20;2.20;;;;;;;17.07;50.31;97185.56;10464221;28;20135;-23
2022/03/16 02:42:26;;;;;;;3.33;2.10;;;;;;;17.07;50.14;97186.38;10467807;28;20032;-24
2022/03/16 02:47:27;;;;;;;3.83;1.97;;;;;;;17.13;52.89;97186.47;10470270;28;20029;-22
2022/03/16 02:52:28;;;;;;;3.70;2.40;;;;;;;17.18;53.48;97173.88;10462940;28;20041;-24
2022/03/16 02:57:28;;;;;;;2.53;1.70;;;;;;;17.19;52.79;97178.97;10468645;28;20029;-23
2022/03/16 03:02:29;;;;;;;1.93;1.73;;;;;;;17.13;50.16;97175.47;10468717;28;20047;-24
2022/03/16 03:07:29;;;;;;;2.53;1.87;;;;;;;17.10;50.54;97175.47;10465221;28;20062;-25
2022/03/16 03:12:33;;;;;;;3.47;2.03;;;;;;;17.06;50.40;97173.75;10469547;28;20035;-24
2022/03/16 03:17:34;;;;;;;2.65;1.90;;;;;;;17.09;50.39;97176.28;10467547;28;20685;-23
2022/03/16 03:22:35;;;;;;;2.93;1.67;;;;;;;17.07;49.98;97185.56;10464427;28;20086;-24
2022/03/16 03:27:35;;;;;;;2.22;1.60;;;;;;;17.05;50.45;97187.19;10462315;28;20039;-24
2022/03/16 03:32:36;;;;;;;2.20;1.65;;;;;;;17.05;50.14;97192.25;10466409;28;20484;-23
2022/03/16 03:37:37;;;;;;;2.90;1.90;;;;;;;17.06;50.13;97206.63;10463265;28;20040;-23
2022/03/16 03:42:37;;;;;;;2.47;2.10;;;;;;;17.04;50.44;97193.94;10473063;28;20091;-23
2022/03/16 03:47:37;;;;;;;1.97;1.77;;;;;;;17.04;50.39;97204.06;10463078;28;20439;-23
2022/03/16 03:52:38;;;;;;;1.90;1.60;;;;;;;17.03;50.73;97199.84;10462802;28;20314;-24
2022/03/16 03:57:39;;;;;;;2.55;2.10;;;;;;;17.11;53.23;97203.31;10472619;28;20072;-24
2022/03/16 04:02:46;;;;;;;3.03;2.13;;;;;;;17.12;52.96;97204.16;10468408;28;20033;-24
2022/03/16 04:07:48;;;;;;;3.05;2.40;;;;;;;17.11;51.20;97205.84;10469193;28;20032;-23
2022/03/16 04:12:49;;;;;;;2.30;1.67;;;;;;;17.09;50.73;97215.06;10466151;28;20381;-23
2022/03/16 04:17:50;;;;;;;1.88;1.65;;;;;;;17.08;50.50;97212.53;10468688;28;20048;-24
2022/03/16 04:22:50;;;;;;;2.90;1.60;;;;;;;17.05;50.42;97210.81;10465222;28;20036;-24
2022/03/16 04:27:50;;;;;;;2.30;1.67;;;;;;;17.05;50.25;97203.22;10468283;28;20041;-24
2022/03/16 04:32:52;;;;;;;1.77;1.60;;;;;;;16.99;50.25;97193.03;10459813;28;20036;-22
2022/03/16 04:37:52;;;;;;;1.90;1.38;;;;;;;17.05;50.50;97199.84;10430076;28;20055;-24
2022/03/16 04:42:53;;;;;;;2.03;1.30;;;;;;;17.04;50.57;97205.72;10461324;28;20032;-23
2022/03/16 04:47:53;;;;;;;1.97;1.30;;;;;;;17.01;50.68;97195.59;10437228;28;20033;-22
2022/03/16 04:52:53;;;;;;;1.60;1.40;;;;;;;17.01;50.07;97200.63;10438756;28;20059;-23
2022/03/16 04:57:54;;;;;;;1.97;1.50;;;;;;;17.00;50.54;97204.00;10455133;28;20047;-22
2022/03/16 05:02:54;;;;;;;8.30;2.03;;;;;;;17.11;53.77;97199.94;10447405;28;20068;-23
2022/03/16 05:07:55;;;;;;;2.90;1.73;;;;;;;17.19;53.40;97191.63;10442912;28;20404;-24
2022/03/16 05:12:56;;;;;;;2.30;1.50;;;;;;;17.18;51.04;97199.19;10454850;28;20815;-22
2022/03/16 05:17:56;;;;;;;2.03;1.50;;;;;;;17.17;50.01;97197.47;10454315;28;20037;-23
2022/03/16 05:22:56;;;;;;;3.43;1.63;;;;;;;17.18;50.21;97194.13;10462677;28;20090;-23
2022/03/16 05:27:57;;;;;;;2.47;1.80;;;;;;;17.19;50.02;97196.69;10460188;28;20034;-24
2022/03/16 05:33:02;;;;;;;2.33;1.27;;;;;;;17.17;50.13;97195.78;10449453;28;20043;-23
2022/03/16 05:38:05;;;;;;;1.70;1.60;;;;;;;17.20;49.95;97190.78;10435041;28;20037;-24
2022/03/16 05:43:05;;;;;;;1.70;1.50;;;;;;;17.16;50.41;97188.19;10443201;28;20400;-24
2022/03/16 05:48:06;;;;;;;4.40;1.67;;;;;;;17.16;49.92;97198.31;10429243;28;20029;-24
2022/03/16 05:53:07;;;;;;;2.65;1.77;;;;;;;17.14;50.39;97202.50;10431257;28;20800;-23
2022/03/16 05:58:08;;;;;;;6.50;2.43;;;;;;;17.10;50.46;97190.63;10450266;28;20044;-23
2022/03/16 06:03:08;;;;;;;2.78;1.73;;;;;;;17.16;50.01;97201.69;10444365;28;20120;-23
2022/03/16 06:08:09;;;;;;;14.88;3.30;;;;;;;17.22;53.35;97201.75;10473598;28;20392;-23
2022/03/16 06:13:09;;;;;;;13.83;4.00;;;;;;;17.26;53.99;97212.78;10461926;28;20500;-23
2022/03/16 06:18:11;;;;;;;5.90;2.33;;;;;;;17.27;51.94;97214.47;10426889;28;20395;-24
2022/03/16 06:23:12;;;;;;;3.25;2.08;;;;;;;17.20;50.23;97227.88;10438589;28;20296;-23
2022/03/16 06:28:12;;;;;;;2.83;1.83;;;;;;;17.15;50.02;97220.22;10432717;28;20493;-23
2022/03/16 06:33:13;;;;;;;8.07;2.60;;;;;;;17.04;50.13;97231.03;10462541;28;20043;-23
2022/03/16 06:38:13;;;;;;;6.13;2.30;;;;;;;16.96;50.18;97227.53;10456051;28;20147;-23
2022/03/16 06:43:13;;;;;;;4.63;2.50;;;;;;;17.04;50.08;97233.56;10458179;28;21610;-24
2022/03/16 06:48:14;;;;;;;8.55;1.90;;;;;;;17.06;50.34;97244.56;10447414;28;20282;-24
2022/03/16 06:53:14;;;;;;;3.23;1.53;;;;;;;17.05;50.23;97251.28;10455606;28;20147;-25
2022/03/16 06:58:15;;;;;;;5.70;1.53;;;;;;;17.07;50.05;97246.25;10450398;28;20283;-24
2022/03/16 07:03:15;;;;;;;3.60;1.83;;;;;;;17.06;50.20;97242.88;10463056;28;20039;-24
2022/03/16 07:08:16;;;;;;;2.75;1.88;;;;;;;17.06;50.09;97252.16;10448003;28;20329;-24
2022/03/16 07:13:16;;;;;;;2.73;1.53;;;;;;;17.07;50.06;97271.56;10455672;28;20033;-24
2022/03/16 07:18:16;;;;;;;7.55;2.53;;;;;;;17.13;53.51;97264.03;10461923;28;20054;-24
2022/03/16 07:23:18;;;;;;;8.75;3.15;;;;;;;16.98;50.91;97262.16;10448844;28;20123;-24
2022/03/16 07:28:19;;;;;;;4.60;1.55;;;;;;;17.10;50.37;97261.47;10451707;28;20123;-25
2022/03/16 07:33:20;;;;;;;7.13;2.08;;;;;;;17.07;50.05;97251.31;10462052;28;20063;-25
2022/03/16 07:38:20;;;;;;;3.93;1.80;;;;;;;17.05;50.19;97253.81;10453353;28;20037;-25
2022/03/16 07:43:21;;;;;;;2.23;1.60;;;;;;;17.04;50.01;97267.31;10435569;28;20040;-24
2022/03/16 07:48:21;;;;;;;4.57;1.65;;;;;;;17.05;50.01;97269.00;10458856;28;20037;-25
2022/03/16 07:53:22;;;;;;;2.75;1.40;;;;;;;17.05;50.08;97258.00;10455042;28;20045;-24
2022/03/16 07:58:22;;;;;;;1.97;1.50;;;;;;;17.06;50.29;97249.63;10459372;28;20549;-24
2022/03/16 08:03:23;;;;;;;2.40;1.40;;;;;;;17.06;50.17;97249.63;10456726;28;20040;-25
2022/03/16 08:08:24;;;;;;;4.07;1.50;;;;;;;17.03;50.47;97247.03;10455573;28;20041;-25
2022/03/16 08:13:24;;;;;;;3.40;1.77;;;;;;;16.93;50.46;97232.56;10456883;28;20044;-25
2022/03/16 08:18:25;;;;;;;9.25;1.90;;;;;;;16.91;50.75;97224.13;10457279;28;20430;-24
2022/03/16 08:23:25;;;;;;;6.07;2.67;;;;;;;17.07;53.06;97233.63;10459251;28;20107;-24
2022/03/16 08:28:26;;;;;;;9.77;3.10;;;;;;;17.19;54.34;97242.22;10457896;28;20032;-25
2022/03/16 08:33:26;;;;;;;7.35;2.90;;;;;;;17.21;54.00;97239.69;10463371;28;20812;-25
2022/03/16 08:38:30;;;;;;;6.55;2.10;;;;;;;17.05;51.17;97227.66;10458965;28;20047;-26
2022/03/16 08:43:30;;;;;;;8.13;3.28;;;;;;;16.68;51.54;97215.34;10467440;28;20131;-25
2022/03/16 08:48:31;;;;;;;4.50;1.75;;;;;;;16.94;50.27;97224.16;10473602;28;20171;-24
2022/03/16 08:53:31;;;;;;;2.83;1.65;;;;;;;16.97;50.09;97214.91;10460154;28;20927;-25
2022/03/16 08:58:32;;;;;;;2.60;1.63;;;;;;;16.99;50.16;97220.00;10477151;28;20047;-25
2022/03/16 09:03:34;;;;;;;3.50;1.48;;;;;;;16.99;50.39;97217.47;10476484;28;20040;-25
2022/03/16 09:08:34;;;;;;;2.35;1.75;;;;;;;16.99;50.06;97213.25;10472479;28;20063;-25
2022/03/16 09:13:34;;;;;;;2.20;1.60;;;;;;;17.00;50.23;97201.47;10475533;28;20428;-26
2022/03/16 09:18:35;;;;;;;3.90;1.90;;;;;;;16.99;50.26;97198.09;10473032;28;20296;-25
2022/03/16 09:23:35;;;;;;;2.60;1.43;;;;;;;16.99;50.23;97197.25;10476373;28;20033;-25
2022/03/16 09:28:35;;;;;;;3.00;1.57;;;;;;;16.97;50.21;97194.69;10470616;28;20281;-25
2022/03/16 09:33:36;;;;;;;3.78;2.40;;;;;;;17.13;53.28;97180.53;10468448;28;20037;-25
2022/03/16 09:38:37;;;;;;;5.37;2.40;;;;;;;17.24;53.36;97179.03;10469417;28;20037;-24
2022/03/16 09:43:39;;;;;;;4.97;2.55;;;;;;;17.25;52.01;97186.59;10472502;28;20335;-25
2022/03/16 09:48:41;;;;;;;3.70;1.83;;;;;;;17.12;50.66;97196.56;10463171;28;20083;-24
2022/03/16 09:53:42;;;;;;;2.60;1.83;;;;;;;17.06;50.24;97215.03;10465038;28;20029;-25
2022/03/16 09:58:43;;;;;;;2.83;2.20;;;;;;;17.03;50.62;97209.94;10476388;28;20044;-25
2022/03/16 10:03:48;;;;;;;2.38;1.88;;;;;;;17.02;50.51;97209.94;10465620;28;20045;-25
2022/03/16 10:13:13;;;;;;;2.15;1.88;;;;;;;17.01;50.15;97215.81;10470636;28;20036;-25
2022/03/16 10:14:14;;;;;;;2.45;1.60;;;;;;;17.00;50.18;97219.19;10462491;28;20111;-25
2022/03/16 10:19:15;;;;;;;2.05;1.60;;;;;;;17.00;50.25;97216.66;10470831;28;20036;-25
2022/03/16 10:24:15;;;;;;;2.15;1.50;;;;;;;16.99;50.51;97212.44;10476782;28;20047;-25
2022/03/16 10:29:16;;;;;;;3.08;1.50;;;;;;;16.96;50.02;97220.81;10471756;28;20040;-23
2022/03/16 10:34:22;;;;;;;2.72;1.70;;;;;;;16.96;50.15;97225.88;10469061;28;20462;-24
2022/03/16 10:39:33;;;;;;;3.40;2.30;;;;;;;17.03;52.96;97209.09;10476379;28;20032;-25
2022/03/16 10:50:08;;;;;;;3.10;2.40;;;;;;;17.27;51.87;97212.81;10468262;28;20408;-25
2022/03/16 10:55:08;;;;;;;3.05;2.15;;;;;;;17.16;50.56;97208.44;10479079;28;20041;-25
2022/03/16 11:00:09;;;;;;;2.75;1.95;;;;;;;17.07;50.24;97203.25;10474206;28;20032;-25
2022/03/16 11:05:10;;;;;;;1.65;1.52;;;;;;;17.05;50.25;97199.84;10475409;28;20064;-25
2022/03/16 11:10:11;;;;;;;1.80;1.60;;;;;;;17.04;50.24;97191.41;10474756;28;20033;-25
2022/03/16 11:15:11;;;;;;;2.25;1.75;;;;;;;17.05;50.31;97187.19;10473866;28;20036;-25
2022/03/16 11:20:12;;;;;;;3.30;1.52;;;;;;;17.06;50.35;97183.84;10475065;28;20041;-25
2022/03/16 11:25:16;;;;;;;1.85;1.50;;;;;;;17.07;50.07;97163.63;10469470;28;20150;-25
2022/03/16 11:30:33;;;;;;;2.00;1.67;;;;;;;17.09;50.06;97164.47;10462803;28;20021;-24
2022/03/16 11:35:36;;;;;;;24.65;7.45;;;;;;;16.99;51.59;97156.78;10438331;28;20029;-23
2022/03/16 11:40:39;;;;;;;8.93;2.85;;;;;;;16.99;50.59;97162.66;10442368;28;20035;-25
2022/03/16 11:45:43;;;;;;;5.15;2.13;;;;;;;17.06;50.82;97150.97;10462118;28;20036;-25
2022/03/16 11:51:09;;;;;;;10.65;3.53;;;;;;;17.13;53.06;97150.19;10461254;28;20041;-25
2022/03/16 11:56:36;;;;;;;14.05;4.22;;;;;;;17.12;54.06;97134.19;10433004;28;20412;-25
2022/03/16 12:01:38;;;;;;;5.15;2.83;;;;;;;17.09;52.50;97136.66;10428618;28;20521;-25
2022/03/16 12:07:01;;;;;;;3.10;1.75;;;;;;;17.11;51.11;97137.53;10455373;28;20071;-25
2022/03/16 12:18:07;;;;;;;8.02;2.70;;;;;;;17.10;52.13;97140.03;10461731;28;20040;-24
2022/03/16 12:23:10;;;;;;;2.38;1.58;;;;;;;17.10;50.62;97130.78;10460370;28;20100;-23
2022/03/16 12:33:37;;;;;;;4.70;2.00;;;;;;;17.07;50.42;97112.19;10437437;28;20066;-25
2022/03/16 12:38:40;;;;;;;3.95;2.30;;;;;;;17.10;50.60;97089.44;10457508;28;20041;-24
2022/03/16 12:43:40;;;;;;;4.28;2.08;;;;;;;17.06;51.04;97086.03;10461431;28;20068;-25
2022/03/16 12:48:47;;;;;;;4.80;2.20;;;;;;;17.06;50.92;97067.50;10469524;28;20037;-25
2022/03/16 12:53:48;;;;;;;4.53;2.20;;;;;;;17.05;50.63;97069.16;10460179;28;20675;-25
2022/03/16 12:58:52;;;;;;;11.50;3.95;;;;;;;17.12;54.62;97059.94;10470483;28;20044;-25
2022/03/16 13:04:01;;;;;;;10.00;4.22;;;;;;;17.16;54.69;97061.69;10468041;28;20507;-25
2022/03/16 13:09:04;;;;;;;6.88;3.15;;;;;;;17.08;52.03;97045.59;10463289;28;20111;-24
2022/03/16 13:14:16;;;;;;;5.65;1.95;;;;;;;17.06;51.18;97045.56;10464294;28;20564;-26
2022/03/16 13:19:26;;;;;;;3.30;1.70;;;;;;;17.05;50.86;97055.66;10460650;28;20040;-24
2022/03/16 13:24:26;;;;;;;4.43;2.25;;;;;;;17.01;51.09;97043.81;10469689;28;20408;-25
2022/03/16 13:29:28;;;;;;;2.67;1.87;;;;;;;17.00;51.17;97044.66;10463697;28;20033;-25
2022/03/16 13:34:33;;;;;;;2.85;2.08;;;;;;;17.00;51.29;97032.00;10474363;28;20044;-25
2022/03/16 13:39:33;;;;;;;2.13;1.48;;;;;;;16.99;50.66;97017.66;10470296;28;20041;-25
2022/03/16 13:44:37;;;;;;;2.70;2.00;;;;;;;16.98;50.83;97019.34;10475462;28;20492;-25
2022/03/16 13:49:42;;;;;;;3.35;2.08;;;;;;;16.98;51.38;97015.97;10469282;28;20284;-25
2022/03/16 13:54:43;;;;;;;3.72;1.73;;;;;;;16.98;51.09;97021.03;10476879;28;20119;-25
2022/03/16 13:59:59;;;;;;;2.47;1.75;;;;;;;16.97;50.84;97030.28;10472445;28;20045;-24
2022/03/16 14:05:03;;;;;;;3.50;3.10;;;;;;;17.04;54.37;97032.06;10472340;28;20033;-25
2022/03/16 14:10:06;;;;;;;8.27;3.17;;;;;;;17.05;54.59;97015.19;10476877;28;20032;-25
2022/03/16 14:15:16;;;;;;;5.60;3.28;;;;;;;17.10;54.10;97018.63;10471472;28;20059;-25
2022/03/16 14:20:19;;;;;;;3.38;2.40;;;;;;;17.05;51.59;97010.13;10471471;28;20402;-25
2022/03/16 14:25:29;;;;;;;2.00;1.73;;;;;;;17.00;51.06;97016.84;10471171;28;20032;-25
2022/03/16 14:30:32;;;;;;;3.00;1.30;;;;;;;16.98;50.77;97014.28;10467196;28;20041;-25
2022/03/16 14:35:35;;;;;;;2.47;2.05;;;;;;;16.99;51.18;97025.25;10450827;28;20211;-24
2022/03/16 14:40:41;;;;;;;2.08;1.45;;;;;;;16.98;51.01;97013.44;10474967;28;20072;-25
2022/03/16 14:45:42;;;;;;;2.43;1.70;;;;;;;16.96;51.06;97010.03;10465406;28;20033;-25
2022/03/16 14:50:42;;;;;;;2.97;2.00;;;;;;;16.96;51.30;97020.16;10465168;28;20283;-27
2022/03/16 14:55:43;;;;;;;2.85;1.70;;;;;;;16.96;51.27;97015.09;10462982;28;20065;-25
2022/03/16 15:00:44;;;;;;;2.20;1.83;;;;;;;16.95;50.93;97000.75;10464133;28;20130;-25
2022/03/16 15:05:44;;;;;;;2.10;1.60;;;;;;;16.92;50.96;96991.44;10472627;28;20114;-25
2022/03/16 15:10:45;;;;;;;2.00;1.80;;;;;;;16.93;50.98;96987.25;10473397;28;20024;-25
2022/03/16 15:15:45;;;;;;;4.33;3.10;;;;;;;17.08;54.29;96984.88;10464119;28;20043;-24
2022/03/16 15:20:45;;;;;;;4.60;3.07;;;;;;;17.12;54.49;96976.47;10469138;28;20353;-25
2022/03/16 15:25:47;;;;;;;3.33;2.13;;;;;;;17.07;53.70;96968.00;10468229;28;20029;-25
2022/03/16 15:30:47;;;;;;;4.15;2.55;;;;;;;17.02;51.46;96969.63;10466772;28;20098;-24
2022/03/16 15:35:47;;;;;;;2.83;1.88;;;;;;;16.98;51.02;96970.44;10464304;28;20040;-25
2022/03/16 15:46:08;;;;;;;2.70;1.73;;;;;;;16.94;51.28;96977.16;10468014;28;20043;-25
2022/03/16 15:51:08;;;;;;;2.58;1.90;;;;;;;16.96;51.15;96982.22;10464098;28;20032;-24
2022/03/16 15:56:11;;;;;;;3.45;1.80;;;;;;;16.95;51.19;96983.03;10466365;28;20060;-25
2022/03/16 16:01:12;;;;;;;2.28;1.75;;;;;;;16.86;50.94;96966.13;10462573;28;20052;-26
2022/03/16 16:06:12;;;;;;;1.83;1.60;;;;;;;16.93;50.65;96977.13;10462851;28;20045;-25
2022/03/16 16:11:13;;;;;;;2.08;1.88;;;;;;;16.91;51.32;96972.03;10471948;28;20271;-25
2022/03/16 16:16:13;;;;;;;4.25;2.38;;;;;;;16.93;51.32;96982.19;10463034;28;20108;-25
2022/03/16 16:21:14;;;;;;;3.90;3.20;;;;;;;16.98;54.38;96983.09;10466731;28;20508;-25
2022/03/16 16:26:15;;;;;;;4.53;3.47;;;;;;;17.07;54.57;96985.72;10465285;28;20287;-25
2022/03/16 16:31:16;;;;;;;4.63;3.17;;;;;;;17.06;54.31;96981.50;10471512;28;20495;-25
2022/03/16 16:36:16;;;;;;;3.08;2.45;;;;;;;17.03;52.23;96986.50;10463987;28;20043;-25
2022/03/16 16:41:16;;;;;;;2.40;2.10;;;;;;;16.99;51.11;96987.31;10465973;28;20082;-24
2022/03/16 16:46:21;;;;;;;2.20;1.70;;;;;;;16.95;51.21;96988.09;10466606;28;20852;-25
2022/03/16 16:51:23;;;;;;;1.63;1.50;;;;;;;16.93;51.23;96992.31;10458517;28;20070;-24
2022/03/16 16:56:26;;;;;;;2.13;1.92;;;;;;;16.96;50.94;96990.66;10466914;28;20054;-26
2022/03/16 17:01:27;;;;;;;2.00;1.80;;;;;;;16.95;50.81;96983.91;10466804;28;20094;-27
2022/03/16 17:06:33;;;;;;;2.42;1.60;;;;;;;16.96;50.99;96979.69;10469453;28;20511;-25
2022/03/16 17:11:35;;;;;;;2.40;1.50;;;;;;;16.93;50.96;96977.13;10463277;28;20400;-25
2022/03/16 17:16:35;;;;;;;1.98;1.77;;;;;;;16.98;50.78;96978.03;10468975;28;20404;-25
2022/03/16 17:21:36;;;;;;;2.57;1.70;;;;;;;16.97;51.21;96972.13;10476087;28;20037;-25
2022/03/16 17:26:36;;;;;;;2.72;1.90;;;;;;;16.99;51.20;96974.66;10472793;28;20043;-25
2022/03/16 17:31:39;;;;;;;5.23;3.03;;;;;;;17.05;54.31;96972.19;10474003;28;20039;-25
2022/03/16 17:36:39;;;;;;;3.97;3.67;;;;;;;17.08;54.10;96969.69;10471268;28;20045;-24
2022/03/16 17:46:58;;;;;;;4.10;3.17;;;;;;;16.95;51.21;96960.28;10471827;28;20295;-24
2022/03/16 17:51:59;;;;;;;2.42;2.22;;;;;;;16.95;51.22;96968.72;10467681;28;20056;-24
2022/03/16 17:57:00;;;;;;;2.03;1.90;;;;;;;16.95;51.25;96962.81;10473416;28;20032;-25
2022/03/16 18:02:00;;;;;;;2.58;2.00;;;;;;;16.94;51.03;96966.19;10472509;28;20032;-24
2022/03/16 18:07:01;;;;;;;8.40;5.47;;;;;;;16.94;52.01;96981.34;10466543;28;20488;-25
2022/03/16 18:17:20;;;;;;;4.88;2.60;;;;;;;16.97;51.21;96984.75;10458122;28;20044;-25
2022/03/16 18:22:27;;;;;;;3.23;2.27;;;;;;;16.96;51.30;96992.31;10455287;28;20041;-25
2022/03/16 18:27:29;;;;;;;2.60;2.10;;;;;;;17.01;50.32;96996.63;10457822;28;20064;-24
2022/03/16 18:32:31;;;;;;;3.00;2.22;;;;;;;17.07;51.28;96990.78;10458196;28;20569;-25
2022/03/16 18:37:34;;;;;;;6.80;4.70;;;;;;;17.10;53.81;96993.31;10444960;28;20554;-25
2022/03/16 18:42:35;;;;;;;6.05;3.38;;;;;;;17.10;53.10;96993.31;10458190;28;20037;-25
2022/03/16 18:47:35;;;;;;;3.83;2.43;;;;;;;17.05;51.22;96992.41;10466240;28;20527;-25
2022/03/16 18:52:35;;;;;;;2.83;2.20;;;;;;;17.07;51.20;97004.25;10455668;28;20291;-25
2022/03/16 18:57:38;;;;;;;4.90;2.43;;;;;;;17.02;50.83;97010.09;10471046;28;20793;-24
2022/03/16 19:02:39;;;;;;;5.95;2.88;;;;;;;17.04;50.67;97009.28;10446950;28;20325;-26
2022/03/16 19:07:40;;;;;;;4.60;2.00;;;;;;;17.02;51.15;96999.97;10433986;28;20037;-25
2022/03/16 19:17:59;;;;;;;4.85;2.67;;;;;;;17.03;50.98;96994.09;10457986;28;20745;-25
2022/03/16 19:22:59;;;;;;;2.10;1.90;;;;;;;16.99;51.30;96992.38;10455477;28;20040;-25
2022/03/16 19:28:02;;;;;;;6.50;2.20;;;;;;;16.97;51.26;96981.38;10444863;28;20036;-25
2022/03/16 19:33:03;;;;;;;4.00;2.22;;;;;;;16.96;51.28;96994.84;10445684;28;20052;-25
2022/03/16 19:38:05;;;;;;;25.00;13.65;;;;;;;16.93;53.12;97000.75;10425964;28;20061;-25
2022/03/16 19:43:06;;;;;;;13.52;7.20;;;;;;;16.95;51.71;96995.69;10421896;28;20116;-24
2022/03/16 19:48:06;;;;;;;10.45;4.25;;;;;;;16.90;52.79;97004.94;10445412;28;20028;-26
2022/03/16 19:53:07;;;;;;;4.20;2.37;;;;;;;16.97;51.10;97007.53;10450770;28;20043;-25
2022/03/16 19:58:09;;;;;;;3.60;2.53;;;;;;;16.96;51.23;97004.97;10453689;28;20298;-25
2022/03/16 20:03:09;;;;;;;7.80;2.47;;;;;;;16.97;51.42;96999.06;10451785;28;20066;-26
2022/03/16 20:08:10;;;;;;;4.95;2.75;;;;;;;16.95;51.07;96999.09;10445053;28;20516;-25
2022/03/16 20:13:11;;;;;;;3.23;2.87;;;;;;;16.94;51.25;96999.06;10449792;28;20447;-25
2022/03/16 20:18:13;;;;;;;3.60;2.47;;;;;;;16.96;51.42;96999.91;10443507;28;20040;-25
2022/03/16 20:23:14;;;;;;;6.70;2.63;;;;;;;16.92;51.14;97009.16;10454231;28;20036;-25
2022/03/16 20:28:18;;;;;;;8.93;4.47;;;;;;;16.98;54.30;97009.22;10450765;28;20044;-25
2022/03/16 20:33:20;;;;;;;6.93;4.28;;;;;;;17.03;54.40;97019.38;10435948;28;20088;-25
2022/03/16 20:38:20;;;;;;;3.65;2.75;;;;;;;17.03;51.73;97021.91;10439571;28;20029;-25
2022/03/16 20:43:20;;;;;;;2.73;2.27;;;;;;;17.01;50.90;97023.59;10446092;28;20037;-25
2022/03/16 20:48:21;;;;;;;3.60;2.97;;;;;;;17.00;50.94;97019.38;10474470;28;20032;-24
2022/03/16 20:53:22;;;;;;;3.53;2.63;;;;;;;16.95;51.09;97023.50;10467376;28;20778;-25
2022/03/16 21:03:41;;;;;;;2.47;2.28;;;;;;;16.97;51.37;97021.84;10471677;28;20039;-25
2022/03/16 21:08:41;;;;;;;3.92;2.47;;;;;;;17.04;51.45;97033.72;10465543;28;20508;-24
2022/03/16 21:13:45;;;;;;;3.73;3.10;;;;;;;17.00;51.53;97027.78;10464846;28;20111;-26
2022/03/16 21:18:45;;;;;;;2.97;2.47;;;;;;;17.03;50.93;97021.91;10456859;28;20029;-25
2022/03/16 21:23:49;;;;;;;5.72;3.42;;;;;;;17.06;52.13;97009.31;10449339;28;20029;-25
2022/03/16 21:28:51;;;;;;;5.70;3.38;;;;;;;17.09;53.49;97001.75;10461595;28;20029;-24
2022/03/16 21:33:52;;;;;;;4.82;2.90;;;;;;;17.05;52.69;97012.66;10452170;28;20036;-25
2022/03/16 21:38:53;;;;;;;4.32;2.40;;;;;;;17.03;51.35;96999.16;10452451;28;20033;-25
2022/03/16 21:43:54;;;;;;;3.40;2.72;;;;;;;17.07;51.41;97018.59;10459716;28;20279;-25
2022/03/16 21:48:56;;;;;;;5.50;2.60;;;;;;;17.05;51.57;97030.34;10453620;28;20116;-25
2022/03/16 21:53:56;;;;;;;3.38;2.38;;;;;;;17.05;51.10;97030.34;10456032;28;20119;-25
2022/03/16 21:58:56;;;;;;;3.33;2.43;;;;;;;17.02;51.70;97023.63;10452770;28;20624;-26
2022/03/16 22:04:00;;;;;;;2.83;2.58;;;;;;;17.02;51.07;97027.81;10461282;28;20489;-25
2022/03/16 22:09:01;;;;;;;4.22;2.78;;;;;;;17.01;50.85;97028.66;10470944;28;20036;-25
2022/03/16 22:14:09;;;;;;;3.73;2.67;;;;;;;17.00;51.13;97032.00;10454195;28;20589;-25
2022/03/16 22:19:09;;;;;;;5.15;3.15;;;;;;;17.00;50.77;97032.00;10462969;28;20029;-25
2022/03/16 22:24:10;;;;;;;5.93;3.23;;;;;;;17.09;55.01;97037.16;10461259;28;20032;-25
2022/03/16 22:29:10;;;;;;;5.20;3.35;;;;;;;17.11;55.15;97030.44;10461237;28;20287;-25
2022/03/16 22:34:10;;;;;;;5.28;3.00;;;;;;;17.07;51.91;97031.25;10466009;28;20412;-25
2022/03/16 22:39:11;;;;;;;3.30;2.37;;;;;;;17.02;51.22;97030.34;10461044;28;20048;-24
2022/03/16 22:44:12;;;;;;;4.50;2.53;;;;;;;17.00;50.90;97032.84;10463073;28;20323;-23
2022/03/16 22:49:13;;;;;;;6.80;2.70;;;;;;;16.98;51.24;97028.63;10462288;28;20150;-25
2022/03/16 22:54:13;;;;;;;3.80;2.67;;;;;;;16.99;50.79;97026.09;10464916;28;20070;-25
2022/03/16 22:59:13;;;;;;;3.23;2.70;;;;;;;16.94;50.88;97012.56;10465217;28;20447;-24
2022/03/16 23:04:14;;;;;;;4.83;2.30;;;;;;;16.97;51.09;97019.31;10463812;28;20037;-25
2022/03/16 23:09:14;;;;;;;2.80;2.47;;;;;;;16.98;50.53;97018.50;10466282;28;20047;-24
2022/03/16 23:14:15;;;;;;;3.25;2.05;;;;;;;16.95;51.15;97021.84;10465143;28;20036;-24
2022/03/16 23:19:15;;;;;;;4.22;2.63;;;;;;;16.96;50.88;97023.53;10466622;28;20033;-25
2022/03/16 23:24:16;;;;;;;4.93;3.00;;;;;;;17.01;54.03;97023.59;10467228;28;20071;-26
2022/03/16 23:29:16;;;;;;;7.03;3.57;;;;;;;17.06;54.43;97027.03;10462019;28;20616;-25
2022/03/16 23:34:16;;;;;;;4.73;3.33;;;;;;;17.04;54.21;97029.53;10460854;28;20291;-26
2022/03/16 23:39:17;;;;;;;3.63;1.87;;;;;;;17.03;51.63;97032.03;10456549;28;20041;-25
2022/03/16 23:44:17;;;;;;;3.47;2.53;;;;;;;17.01;51.29;97033.69;10469819;28;20463;-25
2022/03/16 23:49:17;;;;;;;2.77;2.07;;;;;;;16.99;51.00;97027.78;10460354;28;20284;-25
2022/03/16 23:54:18;;;;;;;2.07;1.87;;;;;;;16.96;51.09;97020.16;10461615;28;20033;-25
2022/03/16 23:59:18;;;;;;;2.97;2.43;;;;;;;16.90;51.02;97015.03;10466572;28;20936;-25
